createdAt,value
2023-01-29T00:00:39.613Z,101610.69
2023-01-29T00:03:28.181Z,101607.28
2023-01-29T00:05:57.051Z,101610.88
2023-01-29T00:08:26.152Z,101605.78
2023-01-29T00:11:05.212Z,101600.66
2023-01-29T00:13:34.926Z,101607.78
2023-01-29T00:16:03.911Z,101601.72
2023-01-29T00:18:32.361Z,101607.09
2023-01-29T00:21:01.373Z,101596.69
2023-01-29T00:23:29.824Z,101599.34
2023-01-29T00:26:00.795Z,101608.47
2023-01-29T00:28:29.237Z,101601.44
2023-01-29T00:30:58.143Z,101603.34
2023-01-29T00:33:26.652Z,101609.59
2023-01-29T00:35:55.435Z,101617.75
2023-01-29T00:38:23.863Z,101613.38
2023-01-29T00:41:11.341Z,101614.34
2023-01-29T00:43:58.735Z,101616.25
2023-01-29T00:46:27.523Z,101611.97
2023-01-29T00:48:56.131Z,101617.50
2023-01-29T00:51:25.003Z,101619.19
2023-01-29T00:53:54.746Z,101615.91
2023-01-29T00:56:29.880Z,101627.44
2023-01-29T00:58:58.388Z,101618.72
2023-01-29T01:01:45.958Z,101620.81
2023-01-29T01:04:14.546Z,101628.59
2023-01-29T01:06:44.711Z,101624.22
2023-01-29T01:09:31.614Z,101617.59
2023-01-29T01:12:00.482Z,101612.28
2023-01-29T01:14:28.927Z,101635.22
2023-01-29T01:16:57.738Z,101621.19
2023-01-29T01:19:26.207Z,101630.13
2023-01-29T01:21:55.018Z,101621.41
2023-01-29T01:24:23.871Z,101638.16
2023-01-29T01:26:52.787Z,101635.69
2023-01-29T01:29:21.798Z,101632.19
2023-01-29T01:31:53.847Z,101635.00
2023-01-29T01:34:22.503Z,101630.69
2023-01-29T01:36:51.587Z,101630.69
2023-01-29T01:39:20.089Z,101627.22
2023-01-29T01:41:48.919Z,101629.13
2023-01-29T01:44:50.169Z,101628.38
2023-01-29T01:47:40.909Z,101633.69
2023-01-29T01:50:21.207Z,101630.28
2023-01-29T01:52:53.849Z,101631.19
2023-01-29T01:55:26.161Z,101628.53
2023-01-29T01:58:03.409Z,101616.72
2023-01-29T02:00:31.898Z,101620.03
2023-01-29T02:03:19.308Z,101617.38
2023-01-29T02:06:09.067Z,101616.50
2023-01-29T02:09:28.671Z,101618.41
2023-01-29T02:11:57.159Z,101616.81
2023-01-29T02:14:26.045Z,101611.50
2023-01-29T02:16:54.477Z,101623.03
2023-01-29T02:20:00.009Z,101624.09
2023-01-29T02:23:27.576Z,101630.34
2023-01-29T02:26:45.617Z,101628.81
2023-01-29T02:29:45.605Z,101630.44
2023-01-29T02:32:37.334Z,101633.25
2023-01-29T02:35:32.400Z,101650.97
2023-01-29T02:38:14.109Z,101639.78
2023-01-29T02:41:11.139Z,101644.91
2023-01-29T02:43:47.685Z,101643.31
2023-01-29T02:46:49.358Z,101655.59
2023-01-29T02:49:50.336Z,101650.50
2023-01-29T02:52:23.885Z,101650.50
2023-01-29T02:55:05.214Z,101651.53
2023-01-29T02:57:38.037Z,101644.78
2023-01-29T03:00:14.950Z,101644.63
2023-01-29T03:02:54.495Z,101638.72
2023-01-29T03:06:23.200Z,101635.97
2023-01-29T03:08:58.352Z,101634.28
2023-01-29T03:11:47.615Z,101632.56
2023-01-29T03:14:57.894Z,101635.31
2023-01-29T03:17:32.075Z,101632.94
2023-01-29T03:20:00.668Z,101639.16
2023-01-29T03:22:29.457Z,101634.81
2023-01-29T03:25:17.520Z,101640.81
2023-01-29T03:28:19.128Z,101646.28
2023-01-29T03:31:12.948Z,101655.19
2023-01-29T03:34:24.903Z,101656.13
2023-01-29T03:37:33.398Z,101660.66
2023-01-29T03:40:04.556Z,101660.66
2023-01-29T03:42:59.357Z,101658.94
2023-01-29T03:45:32.340Z,101659.91
2023-01-29T03:48:13.495Z,101659.13
2023-01-29T03:51:20.973Z,101667.09
2023-01-29T03:54:08.752Z,101666.50
2023-01-29T03:57:05.620Z,101665.72
2023-01-29T04:00:02.972Z,101666.50
2023-01-29T04:03:23.812Z,101665.66
2023-01-29T04:06:05.725Z,101665.81
2023-01-29T04:09:09.909Z,101660.50
2023-01-29T04:11:45.789Z,101671.09
2023-01-29T04:14:14.822Z,101658.22
2023-01-29T04:16:51.757Z,101665.16
2023-01-29T04:19:37.674Z,101666.94
2023-01-29T04:22:37.016Z,101648.75
2023-01-29T04:25:16.201Z,101671.47
2023-01-29T04:28:10.681Z,101655.66
2023-01-29T04:31:04.861Z,101662.75
2023-01-29T04:33:54.061Z,101662.84
2023-01-29T04:36:55.542Z,101659.41
2023-01-29T04:39:35.223Z,101654.41
2023-01-29T04:42:17.531Z,101657.88
2023-01-29T04:44:57.015Z,101659.63
2023-01-29T04:48:02.677Z,101663.28
2023-01-29T04:50:42.202Z,101645.44
2023-01-29T04:53:29.253Z,101659.78
2023-01-29T04:56:28.713Z,101663.38
2023-01-29T04:59:05.762Z,101666.03
2023-01-29T05:01:34.295Z,101662.63
2023-01-29T05:04:10.403Z,101660.06
2023-01-29T05:06:38.952Z,101662.78
2023-01-29T05:09:10.080Z,101659.53
2023-01-29T05:11:38.668Z,101667.16
2023-01-29T05:14:08.268Z,101675.50
2023-01-29T05:16:43.153Z,101665.69
2023-01-29T05:19:16.381Z,101669.00
2023-01-29T05:21:47.452Z,101669.22
2023-01-29T05:24:19.780Z,101666.03
2023-01-29T05:27:08.635Z,101674.50
2023-01-29T05:29:37.546Z,101675.47
2023-01-29T05:32:06.364Z,101676.44
2023-01-29T05:34:35.396Z,101684.72
2023-01-29T05:37:04.116Z,101678.03
2023-01-29T05:39:33.257Z,101679.19
2023-01-29T05:42:02.238Z,101683.19
2023-01-29T05:44:32.336Z,101681.66
2023-01-29T05:47:02.919Z,101677.97
2023-01-29T05:49:31.763Z,101683.28
2023-01-29T05:52:00.366Z,101685.75
2023-01-29T05:54:29.256Z,101683.16
2023-01-29T05:56:57.733Z,101690.47
2023-01-29T05:59:26.659Z,101692.44
2023-01-29T06:01:55.215Z,101696.34
2023-01-29T06:04:24.323Z,101695.09
2023-01-29T06:06:52.840Z,101707.59
2023-01-29T06:09:21.828Z,101694.13
2023-01-29T06:11:50.323Z,101698.94
2023-01-29T06:14:20.363Z,101700.13
2023-01-29T06:16:48.824Z,101703.38
2023-01-29T06:19:18.433Z,101702.78
2023-01-29T06:21:47.003Z,101703.19
2023-01-29T06:24:15.960Z,101712.41
2023-01-29T06:26:44.404Z,101715.28
2023-01-29T06:29:13.344Z,101704.75
2023-01-29T06:31:41.874Z,101720.38
2023-01-29T06:34:12.002Z,101720.53
2023-01-29T06:36:41.990Z,101725.75
2023-01-29T06:39:10.995Z,101733.00
2023-01-29T06:41:39.461Z,101723.75
2023-01-29T06:44:08.283Z,101735.94
2023-01-29T06:46:36.794Z,101737.75
2023-01-29T06:49:05.664Z,101734.63
2023-01-29T06:51:34.196Z,101740.00
2023-01-29T06:54:03.184Z,101735.50
2023-01-29T06:56:31.676Z,101740.28
2023-01-29T06:59:01.805Z,101741.25
2023-01-29T07:01:36.029Z,101732.94
2023-01-29T07:04:05.559Z,101742.69
2023-01-29T07:06:34.331Z,101745.03
2023-01-29T07:09:04.601Z,101753.00
2023-01-29T07:11:34.836Z,101751.78
2023-01-29T07:14:03.894Z,101758.81
2023-01-29T07:16:32.667Z,101762.72
2023-01-29T07:19:01.763Z,101759.59
2023-01-29T07:21:30.251Z,101757.75
2023-01-29T07:23:59.146Z,101769.44
2023-01-29T07:26:27.828Z,101780.16
2023-01-29T07:28:56.662Z,101789.38
2023-01-29T07:31:25.209Z,101783.69
2023-01-29T07:33:54.121Z,101795.25
2023-01-29T07:36:22.645Z,101789.38
2023-01-29T07:38:51.833Z,101787.88
2023-01-29T07:41:20.395Z,101793.38
2023-01-29T07:43:49.437Z,101795.44
2023-01-29T07:46:18.062Z,101800.97
2023-01-29T07:48:46.904Z,101813.59
2023-01-29T07:51:17.257Z,101806.75
2023-01-29T07:53:46.237Z,101822.88
2023-01-29T07:56:14.816Z,101820.59
2023-01-29T07:58:43.682Z,101818.22
2023-01-29T08:01:12.179Z,101823.72
2023-01-29T08:03:40.973Z,101824.84
2023-01-29T08:06:09.506Z,101818.31
2023-01-29T08:08:38.408Z,101830.47
2023-01-29T08:11:06.973Z,101818.22
2023-01-29T08:13:35.814Z,101823.72
2023-01-29T08:16:04.973Z,101820.38
2023-01-29T08:18:33.811Z,101822.94
2023-01-29T08:21:02.475Z,101823.22
2023-01-29T08:23:31.363Z,101836.59
2023-01-29T08:25:59.903Z,101833.94
2023-01-29T08:28:28.834Z,101839.41
2023-01-29T08:30:57.405Z,101841.16
2023-01-29T08:33:38.298Z,101842.06
2023-01-29T08:36:09.046Z,101838.94
2023-01-29T08:38:37.913Z,101837.81
2023-01-29T08:41:06.681Z,101825.75
2023-01-29T08:43:37.389Z,101831.81
2023-01-29T08:46:06.422Z,101838.06
2023-01-29T08:48:35.300Z,101825.75
2023-01-29T08:51:04.768Z,101835.53
2023-01-29T08:53:33.438Z,101836.38
2023-01-29T08:56:02.670Z,101836.75
2023-01-29T08:58:31.123Z,101845.47
2023-01-29T09:01:12.502Z,101828.94
2023-01-29T09:03:47.193Z,101843.56
2023-01-29T09:06:16.039Z,101837.66
2023-01-29T09:08:44.592Z,101842.53
2023-01-29T09:11:14.456Z,101854.94
2023-01-29T09:13:43.017Z,101849.66
2023-01-29T09:16:11.814Z,101855.72
2023-01-29T09:18:40.193Z,101853.81
2023-01-29T09:21:09.526Z,101864.28
2023-01-29T09:23:38.192Z,101864.06
2023-01-29T09:26:08.552Z,101866.72
2023-01-29T09:28:37.032Z,101867.00
2023-01-29T09:31:05.924Z,101864.44
2023-01-29T09:33:34.632Z,101876.59
2023-01-29T09:36:06.199Z,101858.09
2023-01-29T09:38:34.695Z,101864.91
2023-01-29T09:41:51.607Z,101876.41
2023-01-29T09:44:56.358Z,101868.44
2023-01-29T09:47:27.270Z,101873.56
2023-01-29T09:50:12.634Z,101866.03
2023-01-29T09:52:54.657Z,101860.13
2023-01-29T09:55:32.904Z,101866.59
2023-01-29T09:58:24.261Z,101860.47
2023-01-29T10:01:21.481Z,101864.63
2023-01-29T10:04:04.783Z,101857.13
2023-01-29T10:07:00.148Z,101857.56
2023-01-29T10:10:05.575Z,101856.94
2023-01-29T10:12:47.068Z,101848.22
2023-01-29T10:15:28.873Z,101853.34
2023-01-29T10:18:12.285Z,101852.38
2023-01-29T10:20:47.471Z,101835.91
2023-01-29T10:23:43.025Z,101841.00
2023-01-29T10:26:12.188Z,101841.00
2023-01-29T10:28:46.756Z,101832.28
2023-01-29T10:31:27.982Z,101839.50
2023-01-29T10:34:07.649Z,101821.28
2023-01-29T10:36:57.446Z,101832.19
2023-01-29T10:39:26.909Z,101826.69
2023-01-29T10:42:32.513Z,101822.56
2023-01-29T10:45:54.873Z,101817.41
2023-01-29T10:48:45.360Z,101813.19
2023-01-29T10:51:35.165Z,101811.84
2023-01-29T10:54:47.281Z,101806.69
2023-01-29T10:57:46.255Z,101804.28
2023-01-29T11:00:39.137Z,101799.38
2023-01-29T11:03:29.461Z,101794.09
2023-01-29T11:06:24.358Z,101788.47
2023-01-29T11:09:13.391Z,101783.06
2023-01-29T11:12:10.222Z,101762.75
2023-01-29T11:14:43.754Z,101777.56
2023-01-29T11:17:20.565Z,101767.53
2023-01-29T11:19:52.017Z,101761.75
2023-01-29T11:22:24.731Z,101752.63
2023-01-29T11:25:13.114Z,101744.72
2023-01-29T11:27:45.616Z,101744.72
2023-01-29T11:30:40.801Z,101734.50
2023-01-29T11:33:21.134Z,101729.94
2023-01-29T11:35:50.192Z,101724.91
2023-01-29T11:38:23.845Z,101717.16
2023-01-29T11:40:52.942Z,101724.59
2023-01-29T11:43:31.268Z,101717.78
2023-01-29T11:46:02.885Z,101704.91
2023-01-29T11:48:53.563Z,101698.94
2023-01-29T11:51:27.852Z,101705.44
2023-01-29T11:54:03.582Z,101694.88
2023-01-29T11:56:42.843Z,101688.88
2023-01-29T11:59:43.051Z,101683.91
2023-01-29T12:02:17.885Z,101681.34
2023-01-29T12:04:47.062Z,101681.13
2023-01-29T12:07:16.508Z,101673.78
2023-01-29T12:09:58.689Z,101670.72
2023-01-29T12:12:32.213Z,101669.56
2023-01-29T12:15:11.983Z,101662.41
2023-01-29T12:17:40.733Z,101662.72
2023-01-29T12:20:15.823Z,101662.06
2023-01-29T12:23:23.253Z,101661.06
2023-01-29T12:26:06.920Z,101664.47
2023-01-29T12:28:58.543Z,101660.94
2023-01-29T12:31:37.307Z,101660.19
2023-01-29T12:34:07.062Z,101652.66
2023-01-29T12:36:42.445Z,101646.47
2023-01-29T12:39:12.521Z,101627.94
2023-01-29T12:42:00.864Z,101630.09
2023-01-29T12:44:42.771Z,101631.16
2023-01-29T12:47:25.687Z,101639.03
2023-01-29T12:49:57.026Z,101644.91
2023-01-29T12:52:35.086Z,101646.19
2023-01-29T12:55:24.019Z,101643.03
2023-01-29T12:57:56.176Z,101630.03
2023-01-29T13:00:27.653Z,101630.13
2023-01-29T13:03:01.729Z,101626.84
2023-01-29T13:05:43.568Z,101614.81
2023-01-29T13:08:17.122Z,101619.41
2023-01-29T13:10:50.029Z,101614.19
2023-01-29T13:13:54.160Z,101618.00
2023-01-29T13:16:28.288Z,101614.59
2023-01-29T13:18:58.803Z,101599.66
2023-01-29T13:21:46.109Z,101592.03
2023-01-29T13:24:18.735Z,101584.88
2023-01-29T13:26:48.179Z,101588.72
2023-01-29T13:29:27.193Z,101583.50
2023-01-29T13:32:00.200Z,101576.94
2023-01-29T13:34:36.392Z,101576.94
2023-01-29T13:37:12.088Z,101587.66
2023-01-29T13:39:47.682Z,101578.84
2023-01-29T13:42:24.456Z,101582.56
2023-01-29T13:45:01.384Z,101574.91
2023-01-29T13:47:31.040Z,101580.41
2023-01-29T13:50:09.891Z,101576.41
2023-01-29T13:52:45.964Z,101574.69
2023-01-29T13:55:15.295Z,101572.22
2023-01-29T13:57:47.384Z,101568.81
2023-01-29T14:00:22.393Z,101568.81
2023-01-29T14:02:56.862Z,101568.81
2023-01-29T14:05:36.795Z,101564.38
2023-01-29T14:08:35.015Z,101565.66
2023-01-29T14:11:16.104Z,101565.56
2023-01-29T14:13:46.077Z,101572.66
2023-01-29T14:16:18.898Z,101569.50
2023-01-29T14:18:55.688Z,101567.88
2023-01-29T14:21:30.274Z,101564.38
2023-01-29T14:24:18.456Z,101563.63
2023-01-29T14:26:48.900Z,101556.63
2023-01-29T14:29:32.635Z,101547.88
2023-01-29T14:32:19.544Z,101547.13
2023-01-29T14:34:50.125Z,101549.25
2023-01-29T14:37:34.226Z,101557.16
2023-01-29T14:40:22.637Z,101551.19
2023-01-29T14:43:01.642Z,101551.19
2023-01-29T14:45:34.576Z,101557.66
2023-01-29T14:48:11.254Z,101559.44
2023-01-29T14:50:46.263Z,101564.03
2023-01-29T14:53:21.496Z,101561.50
2023-01-29T14:55:55.270Z,101557.13
2023-01-29T14:58:56.237Z,101558.19
2023-01-29T15:01:43.928Z,101565.50
2023-01-29T15:04:15.373Z,101566.69
2023-01-29T15:06:48.881Z,101564.13
2023-01-29T15:09:37.348Z,101557.22
2023-01-29T15:12:45.785Z,101567.25
2023-01-29T15:15:33.406Z,101555.69
2023-01-29T15:18:42.813Z,101561.94
2023-01-29T15:21:16.537Z,101560.13
2023-01-29T15:23:45.674Z,101551.72
2023-01-29T15:26:20.696Z,101548.31
2023-01-29T15:29:04.133Z,101551.16
2023-01-29T15:31:34.635Z,101555.75
2023-01-29T15:34:05.602Z,101550.50
2023-01-29T15:36:34.763Z,101561.47
2023-01-29T15:39:12.746Z,101566.97
2023-01-29T15:41:41.852Z,101561.22
2023-01-29T15:44:23.484Z,101573.19
2023-01-29T15:46:55.270Z,101571.78
2023-01-29T15:49:34.791Z,101570.28
2023-01-29T15:52:27.760Z,101573.06
2023-01-29T15:54:57.320Z,101567.75
2023-01-29T15:57:29.571Z,101573.06
2023-01-29T15:59:58.462Z,101573.91
2023-01-29T16:02:40.543Z,101568.78
2023-01-29T16:05:18.061Z,101573.25
2023-01-29T16:07:47.203Z,101568.59
2023-01-29T16:10:18.432Z,101570.66
2023-01-29T16:13:01.988Z,101565.88
2023-01-29T16:15:38.701Z,101570.41
2023-01-29T16:18:35.317Z,101572.34
2023-01-29T16:21:10.166Z,101575.53
2023-01-29T16:23:46.375Z,101581.28
2023-01-29T16:26:21.899Z,101570.28
2023-01-29T16:28:50.665Z,101571.56
2023-01-29T16:31:28.201Z,101569.16
2023-01-29T16:33:58.905Z,101560.84
2023-01-29T16:36:28.965Z,101558.63
2023-01-29T16:39:00.213Z,101559.66
2023-01-29T16:41:31.680Z,101558.72
2023-01-29T16:44:02.618Z,101561.59
2023-01-29T16:46:35.094Z,101569.69
2023-01-29T16:49:24.394Z,101576.03
2023-01-29T16:51:54.444Z,101574.56
2023-01-29T16:54:26.641Z,101585.19
2023-01-29T16:57:00.113Z,101582.34
2023-01-29T16:59:38.276Z,101578.59
2023-01-29T17:02:29.630Z,101582.34
2023-01-29T17:05:01.301Z,101585.28
2023-01-29T17:07:31.875Z,101587.00
2023-01-29T17:10:02.094Z,101583.94
2023-01-29T17:12:31.771Z,101589.91
2023-01-29T17:15:02.463Z,101586.72
2023-01-29T17:17:34.063Z,101575.44
2023-01-29T17:20:14.384Z,101581.63
2023-01-29T17:22:44.913Z,101576.91
2023-01-29T17:25:17.324Z,101587.47
2023-01-29T17:27:51.737Z,101578.63
2023-01-29T17:30:21.666Z,101586.16
2023-01-29T17:32:50.692Z,101590.94
2023-01-29T17:35:20.054Z,101591.47
2023-01-29T17:37:49.317Z,101590.28
2023-01-29T17:40:39.915Z,101591.38
2023-01-29T17:43:11.903Z,101597.56
2023-01-29T17:45:40.902Z,101595.94
2023-01-29T17:48:15.440Z,101600.19
2023-01-29T17:50:44.505Z,101607.53
2023-01-29T17:53:13.647Z,101605.50
2023-01-29T17:55:42.686Z,101597.97
2023-01-29T17:58:29.845Z,101599.59
2023-01-29T18:00:58.527Z,101594.38
2023-01-29T18:03:28.054Z,101595.44
2023-01-29T18:05:56.804Z,101594.13
2023-01-29T18:08:33.376Z,101589.25
2023-01-29T18:11:02.206Z,101597.78
2023-01-29T18:13:31.101Z,101583.28
2023-01-29T18:16:00.101Z,101587.25
2023-01-29T18:18:29.124Z,101580.31
2023-01-29T18:20:58.096Z,101590.22
2023-01-29T18:23:29.961Z,101590.13
2023-01-29T18:25:58.611Z,101579.69
2023-01-29T18:28:27.497Z,101588.94
2023-01-29T18:30:56.388Z,101580.53
2023-01-29T18:33:26.086Z,101579.47
2023-01-29T18:35:55.342Z,101572.44
2023-01-29T18:38:24.284Z,101574.75
2023-01-29T18:40:53.237Z,101569.66
2023-01-29T18:43:25.465Z,101576.88
2023-01-29T18:45:59.300Z,101582.53
2023-01-29T18:48:28.411Z,101580.31
2023-01-29T18:50:57.029Z,101581.78
2023-01-29T18:53:26.124Z,101580.41
2023-01-29T18:56:05.411Z,101580.63
2023-01-29T18:58:36.252Z,101580.94
2023-01-29T19:01:09.724Z,101582.84
2023-01-29T19:03:39.783Z,101577.13
2023-01-29T19:06:09.920Z,101583.00
2023-01-29T19:08:39.023Z,101573.72
2023-01-29T19:11:08.356Z,101574.06
2023-01-29T19:13:38.145Z,101571.59
2023-01-29T19:16:09.358Z,101576.91
2023-01-29T19:18:38.296Z,101574.69
2023-01-29T19:21:09.405Z,101581.28
2023-01-29T19:23:38.275Z,101575.44
2023-01-29T19:26:07.052Z,101575.56
2023-01-29T19:28:37.025Z,101571.41
2023-01-29T19:31:06.270Z,101577.66
2023-01-29T19:33:35.336Z,101576.72
2023-01-29T19:36:04.053Z,101575.31
2023-01-29T19:38:34.746Z,101575.66
2023-01-29T19:41:05.435Z,101574.56
2023-01-29T19:43:35.328Z,101578.72
2023-01-29T19:46:03.970Z,101579.25
2023-01-29T19:48:33.602Z,101579.03
2023-01-29T19:51:08.728Z,101574.22
2023-01-29T19:53:39.996Z,101576.78
2023-01-29T19:56:10.965Z,101577.97
2023-01-29T19:58:40.011Z,101576.25
2023-01-29T20:01:17.925Z,101583.09
2023-01-29T20:03:50.045Z,101574.88
2023-01-29T20:06:20.801Z,101571.38
2023-01-29T20:08:49.894Z,101576.44
2023-01-29T20:11:21.125Z,101571.56
2023-01-29T20:13:51.353Z,101578.59
2023-01-29T20:16:20.516Z,101575.75
2023-01-29T20:18:49.603Z,101571.38
2023-01-29T20:21:22.934Z,101575.84
2023-01-29T20:23:52.331Z,101580.31
2023-01-29T20:26:21.700Z,101562.88
2023-01-29T20:28:50.831Z,101575.44
2023-01-29T20:31:19.375Z,101582.88
2023-01-29T20:33:48.300Z,101563.50
2023-01-29T20:36:17.144Z,101570.00
2023-01-29T20:38:48.256Z,101576.41
2023-01-29T20:41:17.886Z,101581.00
2023-01-29T20:43:47.403Z,101570.66
2023-01-29T20:46:15.967Z,101577.78
2023-01-29T20:48:46.259Z,101580.22
2023-01-29T20:51:17.065Z,101574.78
2023-01-29T20:53:46.790Z,101576.91
2023-01-29T20:56:16.396Z,101580.75
2023-01-29T20:58:47.065Z,101563.72
2023-01-29T21:01:18.938Z,101570.72
2023-01-29T21:03:48.024Z,101571.38
2023-01-29T21:06:16.587Z,101568.25
2023-01-29T21:08:45.544Z,101572.22
2023-01-29T21:11:14.191Z,101570.50
2023-01-29T21:13:44.262Z,101571.16
2023-01-29T21:16:13.341Z,101576.38
2023-01-29T21:18:42.343Z,101578.59
2023-01-29T21:21:11.117Z,101566.56
2023-01-29T21:23:40.025Z,101567.72
2023-01-29T21:26:09.094Z,101570.19
2023-01-29T21:28:37.944Z,101571.69
2023-01-29T21:31:10.339Z,101565.84
2023-01-29T21:33:39.574Z,101565.09
2023-01-29T21:36:10.295Z,101561.81
2023-01-29T21:38:40.463Z,101562.34
2023-01-29T21:41:10.027Z,101565.00
2023-01-29T21:43:39.375Z,101568.00
2023-01-29T21:46:12.476Z,101566.38
2023-01-29T21:48:41.757Z,101575.44
2023-01-29T21:51:10.242Z,101561.59
2023-01-29T21:53:39.185Z,101554.03
2023-01-29T21:56:08.217Z,101565.44
2023-01-29T21:58:37.257Z,101563.50
2023-01-29T22:01:36.532Z,101557.78
2023-01-29T22:03:57.272Z,101557.56
2023-01-29T22:06:26.349Z,101560.44
2023-01-29T22:08:56.724Z,101565.53
2023-01-29T22:11:25.492Z,101563.09
2023-01-29T22:13:54.157Z,101563.09
2023-01-29T22:16:22.737Z,101553.75
2023-01-29T22:18:51.563Z,101561.72
2023-01-29T22:21:20.184Z,101557.56
2023-01-29T22:23:52.319Z,101557.69
2023-01-29T22:26:20.882Z,101556.50
2023-01-29T22:28:49.664Z,101549.38
2023-01-29T22:31:18.506Z,101549.47
2023-01-29T22:33:47.453Z,101552.25
2023-01-29T22:36:16.129Z,101549.25
2023-01-29T22:38:44.807Z,101543.41
2023-01-29T22:41:13.744Z,101543.72
2023-01-29T22:43:44.173Z,101537.75
2023-01-29T22:46:12.858Z,101534.78
2023-01-29T22:48:42.034Z,101535.63
2023-01-29T22:51:10.582Z,101536.78
2023-01-29T22:53:42.030Z,101533.44
2023-01-29T22:56:11.447Z,101535.38
2023-01-29T22:58:41.450Z,101533.88
2023-01-29T23:01:10.096Z,101533.13
2023-01-29T23:03:38.924Z,101527.25
2023-01-29T23:06:07.373Z,101526.72
2023-01-29T23:08:36.242Z,101535.53
2023-01-29T23:11:14.712Z,101524.47
2023-01-29T23:13:54.099Z,101527.13
2023-01-29T23:16:27.003Z,101526.50
2023-01-29T23:18:57.139Z,101529.16
2023-01-29T23:21:26.051Z,101530.19
2023-01-29T23:23:58.466Z,101525.94
2023-01-29T23:26:47.122Z,101515.50
2023-01-29T23:29:16.206Z,101516.66
2023-01-29T23:31:44.772Z,101519.22
2023-01-29T23:34:14.579Z,101519.44
2023-01-29T23:36:43.238Z,101518.03
2023-01-29T23:39:12.398Z,101513.75
2023-01-29T23:41:40.854Z,101519.19
2023-01-29T23:44:09.711Z,101514.81
2023-01-29T23:46:38.419Z,101518.44
2023-01-29T23:49:07.587Z,101513.31
2023-01-29T23:51:36.162Z,101518.72
2023-01-29T23:54:05.601Z,101511.91
2023-01-29T23:56:34.715Z,101511.25
2023-01-29T23:59:04.753Z,101513.16
